Time;durP1;ratioP1;P1;durP2;ratioP2;P2;SDS_P1;SDS_P2;PMS_P1;PMS_P2;Temp;Humidity;BMP_temperature;BMP_pressure;BME280_temperature;BME280_humidity;BME280_pressure;Samples;Min_cycle;Max_cycle;Signal;HPM_P1;HPM_P2
2023/12/15 00:00:58;;;;;;;15.67;7.23;;;5.80;99.90;;;;;;5096323;28;20461;-57
2023/12/15 00:03:24;;;;;;;17.20;8.13;;;5.80;99.90;;;;;;5096805;28;20043;-56
2023/12/15 00:05:49;;;;;;;16.43;8.03;;;5.90;99.90;;;;;;5096807;28;20040;-57
2023/12/15 00:08:15;;;;;;;15.50;7.47;;;5.90;99.90;;;;;;5078893;28;20051;-57
2023/12/15 00:10:41;;;;;;;17.57;8.63;;;5.80;99.90;;;;;;5096757;28;20059;-57
2023/12/15 00:13:06;;;;;;;20.80;8.90;;;5.90;99.90;;;;;;5095211;28;20051;-56
2023/12/15 00:15:32;;;;;;;23.13;10.20;;;5.90;99.90;;;;;;5097394;28;20134;-57
2023/12/15 00:17:57;;;;;;;18.63;8.47;;;5.90;99.90;;;;;;5096846;28;20395;-57
2023/12/15 00:20:23;;;;;;;17.93;8.60;;;5.90;99.90;;;;;;5096599;28;20137;-56
2023/12/15 00:22:49;;;;;;;19.43;9.00;;;5.90;99.90;;;;;;5096518;28;20478;-57
2023/12/15 00:25:14;;;;;;;15.63;7.80;;;6.00;99.90;;;;;;5095088;28;20043;-57
2023/12/15 00:27:40;;;;;;;17.10;7.67;;;5.90;99.90;;;;;;5096249;28;20083;-57
2023/12/15 00:30:06;;;;;;;18.03;8.70;;;5.90;99.90;;;;;;5096427;28;20495;-57
2023/12/15 00:32:32;;;;;;;13.95;7.68;;;6.00;99.90;;;;;;5096273;28;20043;-56
2023/12/15 00:34:58;;;;;;;17.07;7.60;;;6.00;99.90;;;;;;5096297;28;20109;-56
2023/12/15 00:37:23;;;;;;;20.43;8.03;;;6.00;99.90;;;;;;5095711;28;20039;-57
2023/12/15 00:39:49;;;;;;;20.67;9.43;;;6.00;99.90;;;;;;5095052;28;20048;-56
2023/12/15 00:42:15;;;;;;;20.37;8.53;;;6.00;99.90;;;;;;5096237;28;20503;-56
2023/12/15 00:44:40;;;;;;;17.33;8.13;;;6.00;99.90;;;;;;5096252;28;20397;-56
2023/12/15 00:47:06;;;;;;;18.23;8.40;;;6.00;99.90;;;;;;5096307;28;20086;-56
2023/12/15 00:49:32;;;;;;;15.80;8.47;;;6.00;99.90;;;;;;5096002;28;20130;-56
2023/12/15 00:51:58;;;;;;;20.50;9.57;;;6.00;99.90;;;;;;5095979;28;20087;-57
2023/12/15 00:54:23;;;;;;;19.37;9.03;;;6.10;99.90;;;;;;5094859;28;20039;-57
2023/12/15 00:56:49;;;;;;;21.27;9.00;;;6.10;99.90;;;;;;5095721;28;20507;-56
2023/12/15 00:59:16;;;;;;;18.95;9.48;;;6.10;99.90;;;;;;5095970;28;20059;-56
2023/12/15 01:01:42;;;;;;;19.60;9.48;;;6.10;99.90;;;;;;5095748;28;20137;-56
2023/12/15 01:04:07;;;;;;;17.70;9.53;;;6.10;99.90;;;;;;5095840;28;20490;-57
2023/12/15 01:06:33;;;;;;;18.50;8.73;;;6.10;99.90;;;;;;5094747;28;20559;-57
2023/12/15 01:08:58;;;;;;;19.80;9.20;;;6.10;99.90;;;;;;5095807;28;20394;-57
2023/12/15 01:11:24;;;;;;;20.30;9.77;;;6.20;99.90;;;;;;5095594;28;20039;-57
2023/12/15 01:13:50;;;;;;;18.50;9.37;;;6.20;99.90;;;;;;5095319;28;20056;-57
2023/12/15 01:16:15;;;;;;;19.47;10.33;;;6.20;99.90;;;;;;5077841;28;20067;-57
2023/12/15 01:18:41;;;;;;;18.77;8.63;;;6.20;99.90;;;;;;5095492;28;20548;-57
2023/12/15 01:21:07;;;;;;;17.63;8.90;;;6.20;99.90;;;;;;5095333;28;20056;-57
2023/12/15 01:23:35;;;;;;;18.50;8.23;;;6.20;99.90;;;;;;5095414;28;20050;-57
2023/12/15 01:26:01;;;;;;;21.27;9.40;;;6.20;99.90;;;;;;5095320;28;20055;-57
2023/12/15 01:28:27;;;;;;;18.67;8.98;;;6.20;99.90;;;;;;5095552;28;20102;-57
2023/12/15 01:30:53;;;;;;;19.40;8.87;;;6.20;99.90;;;;;;5095395;28;20040;-57
2023/12/15 01:33:18;;;;;;;21.90;9.77;;;6.20;99.90;;;;;;5095119;28;20126;-57
2023/12/15 01:35:44;;;;;;;24.83;8.67;;;6.30;99.90;;;;;;5095418;28;20047;-57
2023/12/15 01:38:10;;;;;;;23.17;8.93;;;6.30;99.90;;;;;;5094996;28;20494;-57
2023/12/15 01:40:36;;;;;;;21.87;9.73;;;6.30;99.90;;;;;;5094800;28;20047;-57
2023/12/15 01:43:02;;;;;;;26.17;9.87;;;6.30;99.90;;;;;;5095163;28;20040;-57
2023/12/15 01:45:28;;;;;;;19.30;9.32;;;6.30;99.90;;;;;;5094027;28;20056;-57
2023/12/15 01:47:54;;;;;;;23.43;10.33;;;6.30;99.90;;;;;;5094946;28;20051;-57
2023/12/15 01:50:20;;;;;;;23.60;9.95;;;6.30;99.90;;;;;;5094133;28;20047;-57
2023/12/15 01:52:46;;;;;;;22.93;9.20;;;6.30;99.90;;;;;;5094666;28;20387;-57
2023/12/15 01:55:12;;;;;;;22.60;9.83;;;6.30;99.90;;;;;;5094660;28;20281;-57
2023/12/15 01:57:38;;;;;;;24.43;10.20;;;6.40;99.90;;;;;;5095183;28;20044;-57
2023/12/15 02:00:06;;;;;;;22.83;9.93;;;6.40;99.90;;;;;;5094768;28;20044;-57
2023/12/15 02:02:35;;;;;;;23.05;10.00;;;6.40;99.90;;;;;;5094597;28;20040;-57
2023/12/15 02:05:02;;;;;;;26.25;10.73;;;6.40;99.90;;;;;;5094262;28;20487;-57
2023/12/15 02:07:28;;;;;;;22.98;9.82;;;6.40;99.90;;;;;;5094429;28;20487;-57
2023/12/15 02:09:55;;;;;;;25.25;10.75;;;6.50;99.90;;;;;;5094344;28;20376;-57
2023/12/15 02:12:21;;;;;;;23.00;10.38;;;6.50;99.90;;;;;;5093511;28;20048;-57
2023/12/15 02:14:46;;;;;;;25.63;11.25;;;6.50;99.90;;;;;;5094744;28;20052;-57
2023/12/15 02:17:13;;;;;;;25.03;10.90;;;6.50;99.90;;;;;;5094589;28;20479;-57
2023/12/15 02:19:39;;;;;;;24.48;11.63;;;6.50;99.90;;;;;;5094400;28;20051;-57
2023/12/15 02:22:04;;;;;;;26.20;11.85;;;6.60;99.90;;;;;;5094376;28;20215;-57
2023/12/15 02:24:30;;;;;;;23.47;10.03;;;6.60;99.90;;;;;;5094082;28;20071;-56
2023/12/15 02:26:57;;;;;;;25.47;11.03;;;6.60;99.90;;;;;;5094286;28;20506;-57
2023/12/15 02:29:23;;;;;;;27.08;11.73;;;6.60;99.90;;;;;;5093457;28;20051;-57
2023/12/15 02:31:48;;;;;;;26.20;9.77;;;6.60;99.90;;;;;;5094215;28;20052;-57
2023/12/15 02:34:14;;;;;;;26.57;10.07;;;6.60;99.90;;;;;;5093950;28;20050;-56
2023/12/15 02:36:40;;;;;;;23.27;9.73;;;6.60;99.90;;;;;;5093179;28;20047;-57
2023/12/15 02:39:06;;;;;;;21.93;9.87;;;6.60;99.90;;;;;;5093884;28;20051;-57
2023/12/15 02:41:32;;;;;;;23.95;9.85;;;6.60;99.90;;;;;;5094492;28;20066;-57
2023/12/15 02:43:58;;;;;;;26.77;9.97;;;6.60;99.90;;;;;;5094028;28;20424;-57
2023/12/15 02:46:24;;;;;;;20.00;8.70;;;6.60;99.90;;;;;;5093973;28;20052;-57
2023/12/15 02:48:49;;;;;;;18.77;8.97;;;6.60;99.90;;;;;;5093835;28;20097;-57
2023/12/15 02:51:26;;;;;;;21.13;9.77;;;6.60;99.90;;;;;;5093881;28;20086;-57
2023/12/15 02:53:51;;;;;;;22.63;9.70;;;6.60;99.90;;;;;;5092457;28;20044;-57
2023/12/15 02:56:17;;;;;;;21.97;9.37;;;6.60;99.90;;;;;;5093783;28;20040;-57
2023/12/15 02:58:42;;;;;;;20.23;9.03;;;6.60;99.90;;;;;;5093810;28;20044;-57
2023/12/15 03:01:08;;;;;;;22.33;10.27;;;6.60;99.90;;;;;;5093572;28;20083;-57
2023/12/15 03:03:34;;;;;;;22.70;9.50;;;6.60;99.90;;;;;;5093769;28;20044;-57
2023/12/15 03:05:59;;;;;;;23.33;9.83;;;6.60;99.90;;;;;;5092526;28;20036;-57
2023/12/15 03:08:27;;;;;;;24.33;10.37;;;6.60;99.90;;;;;;5093617;28;20059;-57
2023/12/15 03:10:57;;;;;;;21.55;9.25;;;6.60;99.90;;;;;;5092961;28;20048;-57
2023/12/15 03:13:28;;;;;;;22.80;10.05;;;6.60;99.90;;;;;;5093581;28;20060;-57
2023/12/15 03:16:01;;;;;;;19.33;9.48;;;6.60;99.90;;;;;;5093587;28;20425;-57
2023/12/15 03:18:27;;;;;;;23.42;8.80;;;6.60;99.90;;;;;;5093706;28;20044;-57
2023/12/15 03:20:52;;;;;;;21.80;9.20;;;6.60;99.90;;;;;;5093620;28;20130;-57
2023/12/15 03:23:18;;;;;;;25.57;9.57;;;6.70;99.90;;;;;;5093569;28;20089;-57
2023/12/15 03:25:44;;;;;;;19.50;7.83;;;6.60;99.90;;;;;;5093774;28;20043;-56
2023/12/15 03:28:09;;;;;;;17.77;8.43;;;6.60;99.90;;;;;;5093444;28;20048;-57
2023/12/15 03:30:35;;;;;;;23.67;9.27;;;6.50;99.90;;;;;;5093378;28;20044;-57
2023/12/15 03:33:01;;;;;;;17.90;7.93;;;6.50;99.90;;;;;;5093207;28;20542;-57
2023/12/15 03:35:27;;;;;;;21.37;8.77;;;6.50;99.90;;;;;;5091503;28;20084;-57
2023/12/15 03:37:52;;;;;;;24.17;9.17;;;6.50;99.90;;;;;;5093425;28;20052;-57
2023/12/15 03:40:18;;;;;;;25.10;10.10;;;6.40;99.90;;;;;;5093346;28;20047;-57
2023/12/15 03:42:46;;;;;;;24.40;9.70;;;6.40;99.90;;;;;;5093632;28;20043;-57
2023/12/15 03:45:12;;;;;;;21.73;9.48;;;6.40;99.90;;;;;;5092323;28;20048;-57
2023/12/15 03:47:38;;;;;;;22.75;9.77;;;6.30;99.90;;;;;;5093456;28;20055;-57
2023/12/15 03:50:04;;;;;;;26.10;10.00;;;6.30;99.90;;;;;;5093035;28;20048;-57
2023/12/15 03:52:30;;;;;;;17.45;8.75;;;6.40;99.90;;;;;;5093227;28;20083;-57
2023/12/15 03:54:56;;;;;;;27.25;11.63;;;6.30;99.90;;;;;;5093330;28;20044;-57
2023/12/15 03:57:22;;;;;;;21.00;9.57;;;6.30;99.90;;;;;;5093222;28;20048;-57
2023/12/15 03:59:48;;;;;;;22.00;9.10;;;6.30;99.90;;;;;;5093092;28;20086;-57
2023/12/15 04:02:15;;;;;;;19.67;9.57;;;6.30;99.90;;;;;;5093024;28;20502;-57
2023/12/15 04:04:43;;;;;;;21.42;9.70;;;6.30;99.90;;;;;;5093003;28;20109;-57
2023/12/15 04:07:09;;;;;;;20.23;10.15;;;6.30;99.90;;;;;;5093423;28;20129;-57
2023/12/15 04:09:35;;;;;;;19.03;9.77;;;6.30;99.90;;;;;;5093713;28;20634;-57
2023/12/15 04:12:00;;;;;;;21.00;9.07;;;6.30;99.90;;;;;;5093255;28;20490;-57
2023/12/15 04:14:26;;;;;;;19.87;9.77;;;6.30;99.90;;;;;;5096425;28;20056;-57
2023/12/15 04:16:52;;;;;;;19.10;8.87;;;6.20;99.90;;;;;;5095536;28;20388;-57
2023/12/15 04:19:18;;;;;;;21.57;9.57;;;6.20;99.90;;;;;;5095617;28;20054;-57
2023/12/15 04:21:43;;;;;;;23.20;10.00;;;6.20;99.90;;;;;;5096881;28;20047;-57
2023/12/15 04:24:09;;;;;;;21.40;9.50;;;6.20;99.90;;;;;;5129824;27;20051;-57
2023/12/15 04:26:35;;;;;;;25.60;9.73;;;6.20;99.90;;;;;;5096471;28;20468;-57
2023/12/15 04:29:00;;;;;;;22.87;9.60;;;6.20;99.90;;;;;;5096499;28;20040;-57
2023/12/15 04:31:26;;;;;;;18.60;9.27;;;6.20;99.90;;;;;;5096405;28;20047;-57
2023/12/15 04:33:52;;;;;;;18.97;8.63;;;6.10;99.90;;;;;;5096081;28;20040;-57
2023/12/15 04:36:21;;;;;;;19.13;9.17;;;6.10;99.90;;;;;;5095588;28;20391;-57
2023/12/15 04:38:47;;;;;;;20.67;8.73;;;6.10;99.90;;;;;;5095172;28;20082;-57
2023/12/15 04:41:20;;;;;;;16.13;8.05;;;6.10;99.90;;;;;;5096254;28;20040;-57
2023/12/15 04:43:46;;;;;;;18.35;6.78;;;6.10;99.90;;;;;;5096301;28;20044;-57
2023/12/15 04:46:12;;;;;;;16.00;6.57;;;6.10;99.90;;;;;;5096023;28;20040;-57
2023/12/15 04:48:38;;;;;;;17.57;6.67;;;6.20;99.90;;;;;;5096149;28;20070;-57
2023/12/15 04:51:04;;;;;;;16.33;6.60;;;6.20;99.90;;;;;;5096113;28;20051;-57
2023/12/15 04:53:30;;;;;;;15.85;6.43;;;6.20;99.90;;;;;;5095963;28;20047;-57
2023/12/15 04:55:55;;;;;;;18.37;6.53;;;6.20;99.90;;;;;;5096060;28;20549;-57
2023/12/15 04:58:21;;;;;;;17.23;6.17;;;6.30;99.90;;;;;;5095848;28;20483;-57
2023/12/15 05:00:46;;;;;;;17.27;6.53;;;6.20;99.90;;;;;;5095706;28;20048;-57
2023/12/15 05:03:12;;;;;;;19.13;6.97;;;6.30;99.90;;;;;;5095556;28;20502;-57
2023/12/15 05:05:38;;;;;;;17.40;6.93;;;6.30;99.90;;;;;;5096226;28;20481;-57
2023/12/15 05:08:04;;;;;;;15.87;6.40;;;6.30;99.90;;;;;;5095778;28;20044;-57
2023/12/15 05:10:29;;;;;;;15.67;6.30;;;6.30;99.90;;;;;;5094543;28;20126;-57
2023/12/15 05:12:55;;;;;;;18.97;7.13;;;6.30;99.90;;;;;;5095241;28;20032;-57
2023/12/15 05:15:22;;;;;;;18.40;5.93;;;6.30;99.90;;;;;;5095605;28;20093;-57
2023/12/15 05:17:47;;;;;;;15.83;5.37;;;6.30;99.90;;;;;;5095282;28;20437;-57
2023/12/15 05:20:13;;;;;;;14.27;5.40;;;6.30;99.90;;;;;;5094635;28;20040;-57
2023/12/15 05:22:39;;;;;;;17.87;5.70;;;6.40;99.90;;;;;;5095445;28;20372;-57
2023/12/15 05:25:05;;;;;;;17.10;5.27;;;6.40;99.90;;;;;;5095326;28;20044;-57
2023/12/15 05:27:30;;;;;;;12.45;5.28;;;6.30;99.90;;;;;;5095243;28;20131;-57
2023/12/15 05:29:56;;;;;;;13.50;5.63;;;6.30;99.90;;;;;;5095270;28;20131;-57
2023/12/15 05:32:22;;;;;;;13.17;5.57;;;6.30;99.90;;;;;;5095054;28;20048;-57
2023/12/15 05:34:47;;;;;;;14.90;5.57;;;6.30;99.90;;;;;;5095307;28;20467;-57
2023/12/15 05:37:13;;;;;;;17.53;5.20;;;6.30;99.90;;;;;;5094330;28;20450;-57
2023/12/15 05:39:42;;;;;;;13.53;5.43;;;6.20;99.90;;;;;;5093783;28;20172;-57
2023/12/15 05:42:08;;;;;;;21.05;5.15;;;6.20;99.90;;;;;;5094894;28;20109;-57
2023/12/15 05:44:33;;;;;;;17.67;5.40;;;6.20;99.90;;;;;;5094984;28;20048;-57
2023/12/15 05:46:59;;;;;;;11.27;4.67;;;6.20;99.90;;;;;;5094659;28;20055;-57
2023/12/15 05:49:25;;;;;;;16.17;4.77;;;6.20;99.90;;;;;;5095172;28;20044;-57
2023/12/15 05:51:50;;;;;;;12.53;4.57;;;6.20;99.90;;;;;;5095053;28;20504;-57
2023/12/15 05:54:16;;;;;;;16.37;5.03;;;6.20;99.90;;;;;;5094658;28;20395;-57
2023/12/15 05:56:42;;;;;;;13.03;5.57;;;6.20;99.90;;;;;;5094985;28;20069;-57
2023/12/15 05:59:08;;;;;;;12.27;4.73;;;6.10;99.90;;;;;;5094761;28;20044;-57
2023/12/15 06:01:34;;;;;;;18.50;5.13;;;6.10;99.90;;;;;;5094649;28;20063;-57
2023/12/15 06:03:59;;;;;;;15.83;5.33;;;6.10;99.90;;;;;;5094695;28;20040;-57
2023/12/15 06:06:25;;;;;;;9.93;3.70;;;6.10;99.90;;;;;;5093621;28;20404;-57
2023/12/15 06:08:51;;;;;;;11.90;4.60;;;6.00;99.90;;;;;;5094675;28;20040;-57
2023/12/15 06:11:17;;;;;;;16.83;5.37;;;6.00;99.90;;;;;;5094597;28;20040;-57
2023/12/15 06:13:43;;;;;;;11.80;4.17;;;6.00;99.90;;;;;;5092897;28;20052;-56
2023/12/15 06:16:16;;;;;;;19.57;5.27;;;6.00;99.90;;;;;;5094229;28;20124;-57
2023/12/15 06:18:42;;;;;;;10.13;4.25;;;6.00;99.90;;;;;;5094442;28;20056;-57
2023/12/15 06:21:07;;;;;;;13.73;3.80;;;6.00;99.90;;;;;;5093149;28;20052;-56
2023/12/15 06:23:33;;;;;;;12.30;4.47;;;5.90;99.90;;;;;;5094314;28;20055;-56
2023/12/15 06:25:59;;;;;;;10.20;4.07;;;6.00;99.90;;;;;;5094238;28;20055;-57
2023/12/15 06:28:24;;;;;;;13.20;4.20;;;6.00;99.90;;;;;;5094213;28;20089;-57
2023/12/15 06:30:50;;;;;;;15.30;4.28;;;6.10;99.90;;;;;;5094110;28;20165;-57
2023/12/15 06:33:16;;;;;;;13.77;3.73;;;6.10;99.90;;;;;;5094126;28;20504;-57
2023/12/15 06:35:41;;;;;;;15.10;4.30;;;6.20;99.90;;;;;;5093683;28;20047;-57
2023/12/15 06:38:07;;;;;;;16.10;4.20;;;6.20;99.90;;;;;;5094181;28;20048;-57
2023/12/15 06:40:33;;;;;;;12.30;4.33;;;6.20;99.90;;;;;;5094165;28;20054;-57
2023/12/15 06:42:59;;;;;;;12.30;3.37;;;6.20;99.90;;;;;;5093905;28;20055;-57
2023/12/15 06:45:24;;;;;;;11.83;3.43;;;6.20;99.90;;;;;;5093848;28;20048;-57
2023/12/15 06:47:50;;;;;;;10.90;3.27;;;6.20;99.90;;;;;;5094335;28;20529;-58
2023/12/15 06:50:16;;;;;;;11.63;3.53;;;6.20;99.90;;;;;;5093810;28;20048;-58
2023/12/15 06:52:42;;;;;;;11.43;3.70;;;6.20;99.90;;;;;;5093708;28;20073;-58
2023/12/15 06:55:08;;;;;;;17.83;3.93;;;6.30;99.90;;;;;;5093800;28;20054;-58
2023/12/15 06:57:33;;;;;;;14.90;3.50;;;6.30;99.90;;;;;;5093780;28;20052;-58
2023/12/15 06:59:59;;;;;;;11.67;3.60;;;6.30;99.90;;;;;;5093510;28;20044;-58
2023/12/15 07:02:25;;;;;;;15.00;3.90;;;6.30;99.90;;;;;;5093937;28;20048;-57
2023/12/15 07:04:51;;;;;;;16.50;5.13;;;6.30;99.90;;;;;;5094002;28;20056;-57
2023/12/15 07:07:16;;;;;;;13.10;3.63;;;6.30;99.90;;;;;;5093986;28;20079;-57
2023/12/15 07:09:42;;;;;;;15.70;3.93;;;6.30;99.90;;;;;;5093786;28;20048;-58
2023/12/15 07:12:09;;;;;;;13.90;4.87;;;6.40;99.90;;;;;;5093614;28;20044;-58
2023/12/15 07:14:34;;;;;;;15.23;4.65;;;6.40;99.90;;;;;;5093307;28;20127;-59
2023/12/15 07:17:00;;;;;;;19.30;4.50;;;6.40;99.90;;;;;;5094540;28;20083;-58
2023/12/15 07:19:26;;;;;;;12.23;3.80;;;6.40;99.90;;;;;;5093899;28;20498;-58
2023/12/15 07:21:51;;;;;;;14.70;5.07;;;6.40;99.90;;;;;;5093480;28;20380;-58
2023/12/15 07:24:17;;;;;;;17.70;4.80;;;6.40;99.90;;;;;;5093624;28;20040;-58
2023/12/15 07:26:42;;;;;;;14.37;4.20;;;6.40;99.90;;;;;;5092477;28;20048;-58
2023/12/15 07:29:08;;;;;;;11.60;4.30;;;6.40;99.90;;;;;;5093374;28;20044;-58
2023/12/15 07:31:35;;;;;;;12.87;4.17;;;6.40;99.90;;;;;;5093581;28;20073;-58
2023/12/15 07:34:01;;;;;;;16.27;5.00;;;6.40;99.90;;;;;;5093587;28;20044;-58
2023/12/15 07:36:27;;;;;;;11.67;4.83;;;6.50;99.90;;;;;;5093574;28;20556;-58
2023/12/15 07:38:52;;;;;;;12.20;4.37;;;6.40;99.90;;;;;;5093679;28;20040;-58
2023/12/15 07:41:18;;;;;;;10.63;4.53;;;6.40;99.90;;;;;;5093285;28;20395;-58
2023/12/15 07:43:44;;;;;;;14.65;4.90;;;6.40;99.90;;;;;;5093198;28;20426;-58
2023/12/15 07:46:19;;;;;;;13.53;4.20;;;6.40;99.90;;;;;;5092179;28;20040;-58
2023/12/15 07:48:45;;;;;;;16.42;4.90;;;6.40;99.90;;;;;;5096130;28;20092;-58
2023/12/15 07:51:19;;;;;;;14.53;4.50;;;6.40;99.90;;;;;;5096394;28;20044;-58
2023/12/15 07:53:48;;;;;;;12.98;3.83;;;6.30;99.90;;;;;;5097210;28;20434;-58
2023/12/15 07:56:24;;;;;;;9.55;4.47;;;6.40;99.90;;;;;;5096956;28;20150;-58
2023/12/15 07:58:54;;;;;;;13.20;3.90;;;6.40;99.90;;;;;;5097208;28;20121;-58
2023/12/15 08:01:21;;;;;;;15.48;4.50;;;6.30;99.90;;;;;;5097119;28;20054;-58
2023/12/15 08:03:47;;;;;;;11.10;3.92;;;6.30;99.90;;;;;;5097025;28;20051;-58
2023/12/15 08:06:14;;;;;;;14.32;4.15;;;6.40;99.90;;;;;;5097315;28;20399;-57
2023/12/15 08:08:40;;;;;;;;;;;6.30;99.90;;;;;;5097191;28;20059;-57
2023/12/15 08:11:06;;;;;;;17.98;4.00;;;6.30;99.90;;;;;;5096926;28;20279;-57
2023/12/15 08:13:32;;;;;;;19.47;3.73;;;6.40;99.90;;;;;;5095478;28;20063;-57
2023/12/15 08:15:57;;;;;;;9.90;3.90;;;6.40;99.90;;;;;;5096988;28;20062;-57
2023/12/15 08:18:23;;;;;;;15.47;3.93;;;6.40;99.90;;;;;;5096686;28;20044;-57
2023/12/15 08:20:50;;;;;;;9.77;2.60;;;6.40;99.90;;;;;;5096660;28;20048;-57
2023/12/15 08:23:16;;;;;;;9.80;2.40;;;6.40;99.90;;;;;;5096652;28;20102;-57
2023/12/15 08:25:42;;;;;;;11.90;2.22;;;6.40;99.90;;;;;;5096752;28;20105;-57
2023/12/15 08:28:10;;;;;;;10.80;2.13;;;6.40;99.90;;;;;;5096584;28;20483;-57
2023/12/15 08:30:35;;;;;;;10.68;2.30;;;6.50;99.90;;;;;;5096605;28;20048;-57
2023/12/15 08:33:01;;;;;;;10.33;2.63;;;6.50;99.90;;;;;;5096606;28;20036;-58
2023/12/15 08:35:27;;;;;;;8.93;2.47;;;6.50;99.90;;;;;;5096343;28;20528;-57
2023/12/15 08:37:55;;;;;;;8.20;1.80;;;6.60;99.90;;;;;;5096402;28;20056;-57
2023/12/15 08:40:20;;;;;;;11.90;2.47;;;6.60;99.90;;;;;;5096392;28;20487;-57
2023/12/15 08:42:46;;;;;;;13.43;2.47;;;6.60;99.90;;;;;;5095168;28;20105;-57
2023/12/15 08:45:12;;;;;;;15.90;2.53;;;6.60;99.90;;;;;;5096291;28;20044;-57
2023/12/15 08:47:37;;;;;;;10.07;2.10;;;6.70;99.90;;;;;;5095303;28;20048;-57
2023/12/15 08:50:04;;;;;;;13.13;3.50;;;6.70;99.90;;;;;;5096252;28;20051;-57
2023/12/15 08:52:30;;;;;;;10.70;2.42;;;6.70;99.90;;;;;;5096057;28;20083;-57
2023/12/15 08:54:55;;;;;;;16.07;2.20;;;6.70;99.90;;;;;;5096089;28;20102;-57
2023/12/15 08:57:21;;;;;;;7.13;1.67;;;6.70;99.90;;;;;;5095151;28;20097;-57
2023/12/15 08:59:47;;;;;;;10.27;2.40;;;6.80;99.90;;;;;;5095550;28;20040;-58
2023/12/15 09:02:13;;;;;;;8.87;2.37;;;6.80;99.90;;;;;;5095138;28;20048;-57
2023/12/15 09:04:38;;;;;;;8.70;2.03;;;6.80;99.90;;;;;;5094959;28;20051;-57
2023/12/15 09:07:07;;;;;;;9.73;2.40;;;6.80;99.90;;;;;;5095701;28;20123;-57
2023/12/15 09:09:37;;;;;;;19.20;3.28;;;6.80;99.90;;;;;;5096022;28;20493;-57
2023/12/15 09:12:04;;;;;;;13.75;2.28;;;6.80;99.90;;;;;;5095854;28;20479;-57
2023/12/15 09:14:30;;;;;;;8.35;2.20;;;6.80;99.90;;;;;;5095583;28;20059;-57
2023/12/15 09:16:56;;;;;;;9.27;2.40;;;6.80;99.90;;;;;;5095432;28;20479;-57
2023/12/15 09:19:24;;;;;;;10.37;2.10;;;6.80;99.90;;;;;;5094421;28;20078;-57
2023/12/15 09:21:53;;;;;;;9.07;2.60;;;6.80;99.90;;;;;;5095543;28;20043;-57
2023/12/15 09:24:19;;;;;;;21.40;2.83;;;6.90;99.90;;;;;;5094638;28;20048;-57
2023/12/15 09:26:48;;;;;;;10.10;2.07;;;6.90;99.90;;;;;;5094484;28;20083;-57
2023/12/15 09:29:14;;;;;;;9.07;2.20;;;6.90;99.90;;;;;;5095383;28;20047;-57
2023/12/15 09:31:41;;;;;;;10.75;2.40;;;6.90;99.90;;;;;;5095404;28;20048;-57
2023/12/15 09:34:07;;;;;;;12.38;1.77;;;6.90;99.90;;;;;;5094067;28;20051;-56
2023/12/15 09:36:34;;;;;;;9.13;1.90;;;6.90;99.90;;;;;;5095155;28;20040;-57
2023/12/15 09:39:00;;;;;;;14.25;2.40;;;6.90;99.90;;;;;;5095204;28;20278;-57
2023/12/15 09:41:27;;;;;;;8.70;1.90;;;7.00;99.90;;;;;;5094156;28;20047;-57
2023/12/15 09:43:53;;;;;;;;;;;7.00;99.90;;;;;;5095282;28;20048;-57
2023/12/15 09:46:21;;;;;;;10.88;2.67;;;7.00;99.90;;;;;;5094987;28;19924;-57
2023/12/15 09:48:47;;;;;;;11.13;2.33;;;7.00;99.90;;;;;;5094984;28;20066;-57
2023/12/15 09:51:28;;;;;;;10.88;2.10;;;7.10;99.90;;;;;;5094787;28;20044;-57
2023/12/15 09:53:53;;;;;;;13.10;2.50;;;7.10;99.90;;;;;;5093936;28;20079;-57
2023/12/15 09:56:19;;;;;;;8.63;2.47;;;7.10;99.90;;;;;;5094692;28;20443;-58
2023/12/15 09:58:45;;;;;;;10.40;2.07;;;7.10;99.90;;;;;;5095042;28;20079;-57
2023/12/15 10:01:11;;;;;;;7.73;2.20;;;7.10;99.90;;;;;;5093828;28;20127;-57
2023/12/15 10:03:37;;;;;;;12.38;2.50;;;7.20;99.90;;;;;;5094476;28;20071;-57
2023/12/15 10:06:03;;;;;;;14.02;2.08;;;7.30;99.90;;;;;;5094494;28;20487;-57
2023/12/15 10:08:43;;;;;;;5.63;2.20;;;7.30;99.90;;;;;;5094460;28;20074;-58
2023/12/15 10:11:09;;;;;;;10.30;2.20;;;7.30;99.90;;;;;;5093912;28;20059;-57
2023/12/15 10:13:35;;;;;;;15.23;2.97;;;7.30;99.90;;;;;;5094155;28;20127;-57
2023/12/15 10:16:00;;;;;;;13.47;1.90;;;7.40;99.90;;;;;;5094230;28;20129;-57
2023/12/15 10:18:26;;;;;;;9.57;1.87;;;7.40;99.90;;;;;;5094740;28;20483;-57
2023/12/15 10:20:55;;;;;;;9.30;1.77;;;7.40;99.90;;;;;;5094470;28;20097;-58
2023/12/15 10:23:28;;;;;;;10.93;2.15;;;7.40;99.90;;;;;;5094374;28;20044;-57
2023/12/15 10:25:54;;;;;;;11.27;1.90;;;7.40;99.90;;;;;;5094298;28;20383;-57
2023/12/15 10:28:21;;;;;;;12.93;2.40;;;7.40;99.90;;;;;;5093114;28;20089;-57
2023/12/15 10:30:49;;;;;;;13.63;2.53;;;7.40;99.90;;;;;;5094222;28;20043;-57
2023/12/15 10:33:17;;;;;;;8.40;2.53;;;7.40;99.90;;;;;;5094698;28;20094;-57
2023/12/15 10:35:47;;;;;;;12.38;2.33;;;7.40;99.90;;;;;;5094240;28;20048;-57
2023/12/15 10:38:14;;;;;;;10.73;2.10;;;7.40;99.90;;;;;;5094241;28;20044;-57
2023/12/15 10:40:43;;;;;;;12.45;2.53;;;7.40;99.90;;;;;;5094147;28;20142;-57
2023/12/15 10:43:13;;;;;;;9.35;2.35;;;7.50;99.90;;;;;;5094071;28;20047;-57
2023/12/15 10:45:39;;;;;;;7.38;1.80;;;7.50;99.90;;;;;;5094283;28;20376;-57
2023/12/15 10:48:07;;;;;;;11.80;2.40;;;7.50;99.90;;;;;;5094058;28;20044;-57
2023/12/15 10:50:34;;;;;;;9.55;2.63;;;7.50;99.90;;;;;;5094086;28;20044;-57
2023/12/15 10:53:02;;;;;;;10.63;2.28;;;7.50;99.90;;;;;;5092645;28;20043;-57
2023/12/15 10:55:28;;;;;;;14.32;2.50;;;7.60;99.90;;;;;;5093869;28;20131;-58
2023/12/15 10:57:58;;;;;;;10.18;1.92;;;7.60;99.90;;;;;;5093649;28;20043;-58
2023/12/15 11:00:24;;;;;;;10.70;2.03;;;7.70;99.90;;;;;;5094299;28;20051;-58
2023/12/15 11:02:51;;;;;;;9.00;2.67;;;7.70;99.90;;;;;;5094222;28;20096;-57
2023/12/15 11:05:17;;;;;;;9.30;2.78;;;7.70;99.90;;;;;;5092452;28;20528;-57
2023/12/15 11:07:43;;;;;;;14.80;2.77;;;7.80;99.90;;;;;;5092915;28;20044;-57
2023/12/15 11:10:12;;;;;;;20.15;2.70;;;7.70;99.90;;;;;;5093646;28;20044;-57
2023/12/15 11:12:39;;;;;;;12.65;2.30;;;7.70;99.90;;;;;;5093451;28;20048;-57
2023/12/15 11:15:09;;;;;;;14.13;2.75;;;7.80;99.90;;;;;;5093614;28;20056;-58
2023/12/15 11:17:43;;;;;;;11.75;2.33;;;7.80;99.90;;;;;;5094025;28;20071;-58
2023/12/15 11:20:10;;;;;;;13.07;2.78;;;7.80;99.90;;;;;;5093815;28;20055;-58
2023/12/15 11:22:47;;;;;;;13.63;2.83;;;7.80;99.90;;;;;;5096004;28;20051;-57
2023/12/15 11:25:18;;;;;;;11.85;2.60;;;7.90;99.90;;;;;;5096655;28;20052;-57
2023/12/15 11:28:16;;;;;;;13.35;2.53;;;7.90;99.90;;;;;;5097803;28;20044;-57
2023/12/15 11:30:44;;;;;;;16.27;3.00;;;7.90;99.90;;;;;;5097741;28;20044;-58
2023/12/15 11:33:32;;;;;;;10.57;2.53;;;8.00;99.90;;;;;;5097440;28;20448;-58
2023/12/15 11:36:08;;;;;;;13.80;2.72;;;8.00;99.90;;;;;;5097618;28;20048;-58
2023/12/15 11:38:35;;;;;;;10.85;2.85;;;8.00;99.90;;;;;;5097625;28;20047;-57
2023/12/15 11:41:04;;;;;;;10.05;2.47;;;8.10;99.90;;;;;;5097421;28;20498;-57
2023/12/15 11:43:36;;;;;;;8.20;2.00;;;8.20;99.90;;;;;;5096297;28;20077;-58
2023/12/15 11:46:05;;;;;;;11.88;1.90;;;8.20;99.90;;;;;;5096518;28;20131;-58
2023/12/15 11:48:34;;;;;;;13.60;2.88;;;8.20;99.90;;;;;;5097399;28;20052;-58
2023/12/15 11:51:00;;;;;;;12.05;2.20;;;8.20;99.90;;;;;;5097259;28;20494;-57
2023/12/15 11:53:27;;;;;;;14.35;2.63;;;8.20;99.90;;;;;;5097140;28;20084;-57
2023/12/15 11:55:53;;;;;;;11.48;3.25;;;8.30;99.90;;;;;;5097028;28;20090;-57
2023/12/15 11:58:19;;;;;;;11.67;2.73;;;8.30;99.90;;;;;;5096957;28;20056;-57
2023/12/15 12:00:45;;;;;;;11.20;2.67;;;8.30;99.90;;;;;;5096093;28;20285;-57
2023/12/15 12:03:15;;;;;;;16.95;2.65;;;8.40;99.90;;;;;;5097052;28;20044;-57
2023/12/15 12:05:42;;;;;;;12.18;2.80;;;8.40;99.90;;;;;;5097129;28;20044;-57
2023/12/15 12:08:09;;;;;;;11.60;2.58;;;8.40;99.90;;;;;;5097051;28;20048;-57
2023/12/15 12:10:39;;;;;;;11.77;2.63;;;8.40;99.90;;;;;;5096753;28;20517;-57
2023/12/15 12:13:10;;;;;;;11.88;2.75;;;8.40;99.90;;;;;;5096823;28;20036;-57
2023/12/15 12:15:52;;;;;;;11.52;2.13;;;8.50;99.90;;;;;;5095688;28;20058;-57
2023/12/15 12:18:19;;;;;;;10.32;2.50;;;8.60;99.90;;;;;;5097258;28;20131;-57
2023/12/15 12:20:46;;;;;;;9.35;2.25;;;8.60;99.90;;;;;;5096848;28;20046;-57
2023/12/15 12:23:12;;;;;;;13.13;3.40;;;8.60;99.90;;;;;;5096705;28;20047;-57
2023/12/15 12:25:42;;;;;;;14.82;3.28;;;8.70;99.90;;;;;;5096616;28;20486;-58
2023/12/15 12:28:08;;;;;;;14.30;2.78;;;8.60;99.90;;;;;;5096674;28;20514;-58
2023/12/15 12:30:34;;;;;;;11.07;2.40;;;8.70;99.90;;;;;;5096546;28;20094;-57
2023/12/15 12:32:59;;;;;;;11.60;2.63;;;8.70;99.90;;;;;;5095992;28;20087;-57
2023/12/15 12:35:25;;;;;;;14.10;2.50;;;8.70;99.90;;;;;;5096113;28;20048;-57
2023/12/15 12:37:51;;;;;;;10.37;2.53;;;8.70;99.90;;;;;;5096429;28;20048;-57
2023/12/15 12:40:16;;;;;;;10.23;2.07;;;8.70;99.90;;;;;;5095915;28;20047;-57
2023/12/15 12:42:42;;;;;;;12.27;2.67;;;8.60;99.90;;;;;;5095534;28;20059;-57
2023/12/15 12:45:08;;;;;;;7.73;2.93;;;8.60;99.90;;;;;;5095042;28;20236;-57